createdAt,value
2023-12-16T00:01:00.667Z,101000.85
2023-12-16T00:03:36.971Z,100997.00
2023-12-16T00:06:04.426Z,100997.00
2023-12-16T00:08:31.319Z,100994.56
2023-12-16T00:10:58.357Z,100990.01
2023-12-16T00:13:25.842Z,100987.04
2023-12-16T00:15:52.773Z,100985.63
2023-12-16T00:18:19.865Z,100985.28
2023-12-16T00:20:47.176Z,100985.10
2023-12-16T00:23:14.005Z,100989.64
2023-12-16T00:25:40.774Z,100991.73
2023-12-16T00:28:07.764Z,100995.92
2023-12-16T00:30:34.590Z,101005.87
2023-12-16T00:33:01.578Z,101004.66
2023-12-16T00:35:28.619Z,101000.99
2023-12-16T00:37:55.403Z,101001.35
2023-12-16T00:40:22.242Z,101001.17
2023-12-16T00:42:49.157Z,101007.10
2023-12-16T00:45:17.410Z,101008.50
2023-12-16T00:50:12.763Z,101014.27
2023-12-16T00:52:39.523Z,101017.77
2023-12-16T00:55:07.045Z,101017.77
2023-12-16T00:57:33.918Z,101016.02
2023-12-16T01:00:00.714Z,101015.48
2023-12-16T01:02:27.652Z,101014.97
2023-12-16T01:04:54.477Z,101013.91
2023-12-16T01:07:21.322Z,101011.80
2023-12-16T01:09:51.283Z,101008.65
2023-12-16T01:12:18.748Z,101004.81
2023-12-16T01:14:45.618Z,101005.52
2023-12-16T01:17:12.702Z,101002.02
2023-12-16T01:19:39.575Z,100996.09
2023-12-16T01:22:06.379Z,101003.77
2023-12-16T01:24:37.457Z,101007.27
2023-12-16T01:27:07.064Z,101005.17
2023-12-16T01:29:34.078Z,101007.44
2023-12-16T01:32:00.826Z,101006.22
2023-12-16T01:34:27.687Z,101004.13
2023-12-16T01:36:54.554Z,101004.11
2023-12-16T01:39:21.486Z,101006.04
2023-12-16T01:41:48.318Z,101000.96
2023-12-16T01:44:15.200Z,101003.07
2023-12-16T01:46:43.058Z,100995.73
2023-12-16T01:49:10.740Z,101007.42
2023-12-16T01:51:38.206Z,101013.55
2023-12-16T01:54:06.664Z,101019.48
2023-12-16T01:56:33.903Z,101013.73
2023-12-16T01:59:00.887Z,101013.73
2023-12-16T02:01:28.142Z,101007.60
2023-12-16T02:03:56.837Z,101010.21
2023-12-16T02:06:25.464Z,101009.33
2023-12-16T02:08:52.565Z,101006.17
2023-12-16T02:11:19.328Z,101009.51
2023-12-16T02:13:46.133Z,101020.14
2023-12-16T02:16:13.036Z,101025.04
2023-12-16T02:18:39.969Z,101032.20
2023-12-16T02:21:06.930Z,101037.96
2023-12-16T02:23:33.911Z,101049.32
2023-12-16T02:26:01.525Z,101046.18
2023-12-16T02:28:28.431Z,101043.20
2023-12-16T02:30:55.373Z,101036.20
2023-12-16T02:33:22.573Z,101031.47
2023-12-16T02:35:49.419Z,101034.44
2023-12-16T02:38:16.369Z,101024.85
2023-12-16T02:40:44.001Z,101015.92
2023-12-16T02:43:10.905Z,101007.70
2023-12-16T02:45:38.278Z,101009.61
2023-12-16T02:48:05.666Z,101010.65
2023-12-16T02:50:32.551Z,101009.77
2023-12-16T02:53:00.446Z,101012.94
2023-12-16T02:55:27.294Z,101020.27
2023-12-16T02:57:54.190Z,101013.45
2023-12-16T03:00:21.049Z,101018.70
2023-12-16T03:02:47.885Z,101016.42
2023-12-16T03:05:14.767Z,101011.53
2023-12-16T03:07:41.808Z,101009.77
2023-12-16T03:10:09.122Z,101009.59
2023-12-16T03:12:36.072Z,101007.33
2023-12-16T03:15:04.312Z,101002.63
2023-12-16T03:17:31.172Z,101006.65
2023-12-16T03:19:58.136Z,101006.99
2023-12-16T03:22:24.961Z,101005.08
2023-12-16T03:24:51.831Z,101002.27
2023-12-16T03:27:18.621Z,101004.55
2023-12-16T03:29:45.399Z,101013.64
2023-12-16T03:32:12.253Z,101019.58
2023-12-16T03:34:39.073Z,101030.59
2023-12-16T03:37:05.892Z,101038.98
2023-12-16T03:39:32.612Z,101046.83
2023-12-16T03:41:59.365Z,101049.80
2023-12-16T03:44:26.195Z,101060.63
2023-12-16T03:46:52.927Z,101067.27
2023-12-16T03:49:19.816Z,101067.27
2023-12-16T03:51:46.737Z,101065.17
2023-12-16T03:54:13.506Z,101063.95
2023-12-16T03:56:40.259Z,101063.77
2023-12-16T03:59:07.099Z,101062.89
2023-12-16T04:01:33.942Z,101064.46
2023-12-16T04:04:00.912Z,101065.33
2023-12-16T04:06:27.824Z,101060.44
2023-12-16T04:08:54.569Z,101055.91
2023-12-16T04:11:21.372Z,101050.83
2023-12-16T04:13:49.429Z,101046.98
2023-12-16T04:16:16.249Z,101042.61
2023-12-16T04:18:44.196Z,101047.50
2023-12-16T04:21:11.078Z,101042.25
2023-12-16T04:23:37.814Z,101041.56
2023-12-16T04:26:07.687Z,101044.86
2023-12-16T04:28:35.323Z,101042.94
2023-12-16T04:31:02.220Z,101050.45
2023-12-16T04:33:29.107Z,101056.90
2023-12-16T04:35:55.949Z,101060.39
2023-12-16T04:38:22.679Z,101061.44
2023-12-16T04:40:49.445Z,101059.86
2023-12-16T04:43:16.781Z,101066.16
2023-12-16T04:45:43.794Z,101072.12
2023-12-16T04:48:10.796Z,101082.61
2023-12-16T04:50:37.710Z,101088.02
2023-12-16T04:53:04.538Z,101088.20
2023-12-16T04:55:31.349Z,101093.80
2023-12-16T04:57:58.238Z,101101.13
2023-12-16T05:00:25.061Z,101103.74
2023-12-16T05:02:51.807Z,101101.30
2023-12-16T05:05:18.741Z,101094.64
2023-12-16T05:07:45.610Z,101085.02
2023-12-16T05:10:12.438Z,101081.35
2023-12-16T05:12:40.736Z,101081.71
2023-12-16T05:15:08.152Z,101078.23
2023-12-16T05:17:35.056Z,101077.38
2023-12-16T05:20:02.233Z,101082.29
2023-12-16T05:22:34.024Z,101076.36
2023-12-16T05:25:02.700Z,101074.46
2023-12-16T05:27:29.540Z,101074.31
2023-12-16T05:30:01.056Z,101072.75
2023-12-16T05:32:28.083Z,101070.84
2023-12-16T05:34:55.681Z,101066.99
2023-12-16T05:37:22.753Z,101069.27
2023-12-16T05:39:49.550Z,101076.42
2023-12-16T05:42:16.394Z,101082.71
2023-12-16T05:44:43.165Z,101081.66
2023-12-16T05:47:10.077Z,101083.92
2023-12-16T05:49:36.978Z,101085.67
2023-12-16T05:52:04.651Z,101090.73
2023-12-16T05:54:31.432Z,101091.60
2023-12-16T05:56:58.284Z,101091.61
2023-12-16T05:59:25.364Z,101094.56
2023-12-16T06:01:52.210Z,101099.09
2023-12-16T06:04:19.173Z,101103.46
2023-12-16T06:06:45.976Z,101105.73
2023-12-16T06:09:13.315Z,101106.23
2023-12-16T06:11:40.268Z,101109.20
2023-12-16T06:14:07.272Z,101114.44
2023-12-16T06:16:34.090Z,101107.27
2023-12-16T06:19:03.133Z,101101.50
2023-12-16T06:21:30.539Z,101101.50
2023-12-16T06:24:00.848Z,101108.48
2023-12-16T06:26:27.756Z,101107.08
2023-12-16T06:28:54.526Z,101101.31
2023-12-16T06:31:21.883Z,101105.16
2023-12-16T06:33:48.807Z,101115.45
2023-12-16T06:36:15.875Z,101118.41
2023-12-16T06:38:42.904Z,101123.84
2023-12-16T06:41:09.904Z,101121.04
2023-12-16T06:43:36.972Z,101120.69
2023-12-16T06:46:03.989Z,101117.69
2023-12-16T06:48:30.995Z,101115.93
2023-12-16T06:50:58.638Z,101113.48
2023-12-16T06:53:26.355Z,101114.88
2023-12-16T06:55:54.018Z,101111.38
2023-12-16T06:58:21.728Z,101118.70
2023-12-16T07:00:48.971Z,101127.08
2023-12-16T07:03:17.089Z,101128.47
2023-12-16T07:05:44.094Z,101130.71
2023-12-16T07:08:13.666Z,101131.14
2023-12-16T07:10:40.486Z,101128.80
2023-12-16T07:13:08.426Z,101133.20
2023-12-16T07:15:35.412Z,101137.23
2023-12-16T07:18:03.471Z,101134.44
2023-12-16T07:20:31.133Z,101140.92
2023-12-16T07:22:58.030Z,101147.55
2023-12-16T07:25:24.953Z,101149.98
2023-12-16T07:27:51.846Z,101152.95
2023-12-16T07:30:18.941Z,101155.58
2023-12-16T07:32:46.067Z,101151.69
2023-12-16T07:35:16.091Z,101150.45
2023-12-16T07:37:43.577Z,101144.48
2023-12-16T07:40:11.399Z,101146.54
2023-12-16T07:42:40.910Z,101143.54
2023-12-16T07:45:09.041Z,101144.05
2023-12-16T07:47:36.367Z,101139.34
2023-12-16T07:50:04.262Z,101139.88
2023-12-16T07:52:31.405Z,101141.80
2023-12-16T07:54:58.288Z,101146.17
2023-12-16T07:57:25.160Z,101152.28
2023-12-16T07:59:54.335Z,101153.85
2023-12-16T08:02:21.514Z,101151.92
2023-12-16T08:04:49.875Z,101152.45
2023-12-16T08:07:16.698Z,101154.52
2023-12-16T08:09:43.434Z,101151.35
2023-12-16T08:12:10.585Z,101152.55
2023-12-16T08:14:37.796Z,101152.02
2023-12-16T08:17:04.533Z,101154.64
2023-12-16T08:19:31.378Z,101162.13
2023-12-16T08:22:00.304Z,101163.33
2023-12-16T08:24:27.156Z,101161.90
2023-12-16T08:26:54.012Z,101155.56
2023-12-16T08:29:21.311Z,101163.05
2023-12-16T08:31:48.278Z,101162.86
2023-12-16T08:34:15.392Z,101159.67
2023-12-16T08:36:42.405Z,101160.70
2023-12-16T08:39:09.152Z,101169.06
2023-12-16T08:41:36.627Z,101166.22
2023-12-16T08:44:03.927Z,101164.75
2023-12-16T08:46:30.799Z,101164.89
2023-12-16T08:48:58.547Z,101162.90
2023-12-16T08:51:26.275Z,101165.43
2023-12-16T08:53:53.745Z,101169.74
2023-12-16T08:56:20.623Z,101170.92
2023-12-16T08:58:47.745Z,101170.52
2023-12-16T09:01:14.733Z,101174.86
2023-12-16T09:03:45.130Z,101174.34
2023-12-16T09:06:12.101Z,101178.89
2023-12-16T09:08:39.306Z,101183.95
2023-12-16T09:11:06.147Z,101183.26
2023-12-16T09:13:33.288Z,101185.36
2023-12-16T09:16:00.261Z,101190.11
2023-12-16T09:18:27.389Z,101189.09
2023-12-16T09:20:54.350Z,101185.05
2023-12-16T09:23:21.491Z,101190.45
2023-12-16T09:25:48.664Z,101192.91
2023-12-16T09:28:15.974Z,101189.04
2023-12-16T09:30:42.985Z,101187.13
2023-12-16T09:33:09.859Z,101189.93
2023-12-16T09:35:36.967Z,101184.83
2023-12-16T09:38:03.930Z,101189.69
2023-12-16T09:40:30.899Z,101187.17
2023-12-16T09:43:14.597Z,101190.77
2023-12-16T09:45:44.814Z,101190.48
2023-12-16T09:48:11.739Z,101180.39
2023-12-16T09:50:39.070Z,101179.61
2023-12-16T09:53:05.896Z,101177.44
2023-12-16T09:55:32.979Z,101173.90
2023-12-16T09:58:03.278Z,101174.63
2023-12-16T10:00:31.990Z,101166.73
2023-12-16T10:02:59.746Z,101165.20
2023-12-16T10:05:29.130Z,101168.15
2023-12-16T10:08:05.083Z,101167.80
2023-12-16T10:10:32.029Z,101159.59
2023-12-16T10:13:05.327Z,101157.30
2023-12-16T10:15:33.513Z,101163.27
2023-12-16T10:18:02.483Z,101161.48
2023-12-16T10:20:30.744Z,101163.39
2023-12-16T10:23:01.472Z,101163.21
2023-12-16T10:25:31.510Z,101162.66
2023-12-16T10:28:01.228Z,101166.50
2023-12-16T10:30:28.330Z,101165.44
2023-12-16T10:33:02.825Z,101163.48
2023-12-16T10:35:30.765Z,101163.14
2023-12-16T10:37:57.619Z,101158.79
2023-12-16T10:40:25.011Z,101157.58
2023-12-16T10:42:54.092Z,101158.45
2023-12-16T10:45:21.309Z,101155.79
2023-12-16T10:47:50.806Z,101152.10
2023-12-16T10:50:21.567Z,101153.38
2023-12-16T10:52:57.107Z,101150.79
2023-12-16T10:55:45.141Z,101153.11
2023-12-16T10:58:24.586Z,101149.31
2023-12-16T11:00:53.405Z,101148.15
2023-12-16T11:03:33.202Z,101146.64
2023-12-16T11:06:08.249Z,101145.67
2023-12-16T11:08:36.683Z,101150.09
2023-12-16T11:11:04.328Z,101150.51
2023-12-16T11:13:31.908Z,101148.46
2023-12-16T11:16:10.708Z,101147.43
2023-12-16T11:18:40.828Z,101145.02
2023-12-16T11:21:10.332Z,101141.12
2023-12-16T11:23:45.298Z,101138.09
2023-12-16T11:26:12.474Z,101135.23
2023-12-16T11:28:39.481Z,101125.04
2023-12-16T11:31:06.498Z,101126.22
2023-12-16T11:33:48.935Z,101125.81
2023-12-16T11:36:16.084Z,101124.57
2023-12-16T11:38:44.554Z,101127.49
2023-12-16T11:41:31.855Z,101123.61
2023-12-16T11:43:58.672Z,101121.30
2023-12-16T11:46:35.444Z,101115.83
2023-12-16T11:49:04.566Z,101118.11
2023-12-16T11:51:39.531Z,101118.23
2023-12-16T11:54:07.589Z,101116.44
2023-12-16T11:56:35.294Z,101116.38
2023-12-16T11:59:03.667Z,101117.19
2023-12-16T12:01:32.282Z,101118.34
2023-12-16T12:04:01.332Z,101114.02
2023-12-16T12:06:28.647Z,101109.92
2023-12-16T12:08:55.491Z,101105.70
2023-12-16T12:11:22.468Z,101104.28
2023-12-16T12:13:52.221Z,101102.00
2023-12-16T12:16:19.135Z,101094.10
2023-12-16T12:18:46.086Z,101091.81
2023-12-16T12:21:13.009Z,101095.03
2023-12-16T12:23:42.770Z,101098.08
2023-12-16T12:26:09.965Z,101099.88
2023-12-16T12:28:37.032Z,101096.05
2023-12-16T12:31:05.849Z,101093.23
2023-12-16T12:33:33.852Z,101088.98
2023-12-16T12:36:01.509Z,101085.41
2023-12-16T12:38:29.081Z,101087.43
2023-12-16T12:41:04.863Z,101081.96
2023-12-16T12:43:33.919Z,101072.10
2023-12-16T12:46:09.301Z,101070.84
2023-12-16T12:48:37.780Z,101065.38
2023-12-16T12:51:06.484Z,101064.85
2023-12-16T12:53:37.362Z,101060.06
2023-12-16T12:56:05.436Z,101063.21
2023-12-16T12:58:33.779Z,101065.30
2023-12-16T13:01:02.970Z,101065.09
2023-12-16T13:03:32.002Z,101059.46
2023-12-16T13:06:02.706Z,101055.56
2023-12-16T13:08:31.018Z,101050.27
2023-12-16T13:10:57.939Z,101043.23
2023-12-16T13:13:24.821Z,101039.55
2023-12-16T13:15:56.238Z,101039.03
2023-12-16T13:18:26.869Z,101035.30
2023-12-16T13:20:56.446Z,101031.56
2023-12-16T13:23:23.527Z,101025.60
2023-12-16T13:25:50.948Z,101028.61
2023-12-16T13:28:18.588Z,101026.69
2023-12-16T13:30:45.363Z,101028.39
2023-12-16T13:33:12.329Z,101026.10
2023-12-16T13:35:39.791Z,101026.29
2023-12-16T13:38:06.542Z,101026.73
2023-12-16T13:40:34.477Z,101027.35
2023-12-16T13:43:04.284Z,101028.27
2023-12-16T13:45:32.502Z,101026.41
2023-12-16T13:47:59.946Z,101024.52
2023-12-16T13:50:26.910Z,101029.14
2023-12-16T13:52:53.825Z,101034.45
2023-12-16T13:55:20.581Z,101034.50
2023-12-16T13:57:47.380Z,101036.30
2023-12-16T14:00:14.862Z,101030.89
2023-12-16T14:02:41.719Z,101029.56
2023-12-16T14:05:08.565Z,101031.54
2023-12-16T14:07:37.060Z,101032.65
2023-12-16T14:10:04.304Z,101034.45
2023-12-16T14:12:31.138Z,101037.81
2023-12-16T14:14:57.944Z,101034.00
2023-12-16T14:17:24.743Z,101028.44
2023-12-16T14:19:51.490Z,101026.01
2023-12-16T14:22:18.640Z,101026.02
2023-12-16T14:24:45.494Z,101019.54
2023-12-16T14:27:12.409Z,101014.15
2023-12-16T14:29:39.205Z,101015.45
2023-12-16T14:32:06.285Z,101013.75
2023-12-16T14:34:34.635Z,101020.81
2023-12-16T14:37:01.587Z,101017.75
2023-12-16T14:39:28.382Z,101018.09
2023-12-16T14:41:55.103Z,101014.52
2023-12-16T14:44:21.815Z,101019.05
2023-12-16T14:46:48.866Z,101024.80
2023-12-16T14:49:15.630Z,101027.71
2023-12-16T14:51:42.467Z,101027.46
2023-12-16T14:54:09.372Z,101022.98
2023-12-16T14:56:36.744Z,101023.58
2023-12-16T14:59:03.459Z,101028.21
2023-12-16T15:01:30.192Z,101021.60
2023-12-16T15:03:57.344Z,101019.02
2023-12-16T15:06:30.317Z,101017.45
2023-12-16T15:08:58.809Z,101017.83
2023-12-16T15:11:25.603Z,101012.77
2023-12-16T15:13:52.404Z,101012.27
2023-12-16T15:16:20.888Z,101011.91
2023-12-16T15:18:49.166Z,101012.79
2023-12-16T15:21:16.950Z,101009.50
2023-12-16T15:23:45.897Z,101008.10
2023-12-16T15:26:12.695Z,100999.92
2023-12-16T15:28:39.344Z,100997.48
2023-12-16T15:31:06.226Z,100994.00
2023-12-16T15:33:33.255Z,100993.33
2023-12-16T15:36:00.245Z,100989.33
2023-12-16T15:38:27.409Z,100987.45
2023-12-16T15:40:55.957Z,100991.33
2023-12-16T15:43:22.655Z,100990.48
2023-12-16T15:45:49.355Z,100994.55
2023-12-16T15:48:17.859Z,100998.27
2023-12-16T15:50:44.898Z,101005.64
2023-12-16T15:53:12.534Z,101004.98
2023-12-16T15:55:39.229Z,101012.17
2023-12-16T15:58:05.961Z,101015.17
2023-12-16T16:00:32.676Z,101013.30
2023-12-16T16:03:01.177Z,101010.33
2023-12-16T16:05:28.146Z,101006.52
2023-12-16T16:07:55.012Z,101003.88
2023-12-16T16:10:21.901Z,101005.98
2023-12-16T16:12:48.858Z,100999.25
2023-12-16T16:15:17.860Z,100992.34
2023-12-16T16:17:47.497Z,100988.23
2023-12-16T16:20:15.237Z,100983.74
2023-12-16T16:22:42.265Z,100986.55
2023-12-16T16:25:10.770Z,100984.48
2023-12-16T16:27:39.946Z,100985.58
2023-12-16T16:30:08.762Z,100985.27
2023-12-16T16:32:36.458Z,100986.16
2023-12-16T16:35:07.666Z,100985.58
2023-12-16T16:37:35.005Z,100986.60
2023-12-16T16:40:02.070Z,100985.79
2023-12-16T16:42:28.920Z,100987.54
2023-12-16T16:44:56.068Z,100993.46
2023-12-16T16:47:23.234Z,100996.10
2023-12-16T16:49:52.021Z,101000.70
2023-12-16T16:52:19.007Z,100999.84
2023-12-16T16:54:45.874Z,100999.66
2023-12-16T16:57:13.273Z,100993.56
2023-12-16T16:59:40.295Z,100991.99
2023-12-16T17:02:07.150Z,100997.32
2023-12-16T17:04:33.974Z,101000.00
2023-12-16T17:07:00.888Z,100995.46
2023-12-16T17:09:27.809Z,100994.04
2023-12-16T17:11:54.755Z,100995.26
2023-12-16T17:14:21.714Z,100992.65
2023-12-16T17:16:48.570Z,100992.86
2023-12-16T17:19:16.429Z,100991.34
2023-12-16T17:21:44.309Z,100992.25
2023-12-16T17:24:12.339Z,100987.37
2023-12-16T17:26:40.390Z,100987.23
2023-12-16T17:29:07.318Z,100987.61
2023-12-16T17:31:34.335Z,100985.73
2023-12-16T17:34:01.231Z,100982.09
2023-12-16T17:36:28.439Z,100984.73
2023-12-16T17:38:55.264Z,100985.30
2023-12-16T17:41:22.136Z,100981.28
2023-12-16T17:43:48.939Z,100978.83
2023-12-16T17:46:16.650Z,100973.95
2023-12-16T17:48:43.563Z,100967.13
2023-12-16T17:51:11.760Z,100969.08
2023-12-16T17:53:38.910Z,100968.39
2023-12-16T17:56:06.017Z,100967.34
2023-12-16T17:58:36.243Z,100967.70
2023-12-16T18:01:04.172Z,100972.95
2023-12-16T18:03:30.942Z,100969.28
2023-12-16T18:05:58.126Z,100975.94
2023-12-16T18:08:24.890Z,100971.38
2023-12-16T18:10:56.400Z,100962.46
2023-12-16T18:13:23.088Z,100958.45
2023-12-16T18:15:49.926Z,100954.62
2023-12-16T18:18:17.955Z,100955.33
2023-12-16T18:20:59.776Z,100959.55
2023-12-16T18:23:29.589Z,100961.13
2023-12-16T18:26:00.646Z,100962.52
2023-12-16T18:28:27.485Z,100960.59
2023-12-16T18:30:54.231Z,100966.02
2023-12-16T18:33:21.131Z,100968.83
2023-12-16T18:35:47.907Z,100969.54
2023-12-16T18:38:15.430Z,100966.20
2023-12-16T18:40:42.136Z,100970.75
2023-12-16T18:43:08.927Z,100967.42
2023-12-16T18:45:37.556Z,100974.39
2023-12-16T18:48:07.183Z,100974.02
2023-12-16T18:50:34.054Z,100974.55
2023-12-16T18:53:00.769Z,100974.52
2023-12-16T18:55:27.573Z,100972.58
2023-12-16T18:57:54.399Z,100974.31
2023-12-16T19:00:21.323Z,100966.23
2023-12-16T19:02:48.958Z,100966.06
2023-12-16T19:05:15.957Z,100953.65
2023-12-16T19:07:44.846Z,100945.48
2023-12-16T19:10:12.215Z,100947.80
2023-12-16T19:12:39.706Z,100949.23
2023-12-16T19:15:06.831Z,100945.26
2023-12-16T19:17:33.670Z,100943.38
2023-12-16T19:20:00.729Z,100946.76
2023-12-16T19:22:27.749Z,100941.39
2023-12-16T19:24:54.536Z,100937.95
2023-12-16T19:27:21.721Z,100939.55
2023-12-16T19:29:49.756Z,100944.48
2023-12-16T19:32:17.501Z,100947.80
2023-12-16T19:34:47.186Z,100948.85
2023-12-16T19:37:16.150Z,100951.65
2023-12-16T19:39:43.015Z,100949.90
2023-12-16T19:42:10.156Z,100954.45
2023-12-16T19:44:39.074Z,100948.69
2023-12-16T19:47:05.876Z,100948.85
2023-12-16T19:49:33.024Z,100949.90
2023-12-16T19:51:59.991Z,100952.71
2023-12-16T19:54:26.782Z,100960.92
2023-12-16T19:56:54.148Z,100961.63
2023-12-16T19:59:21.957Z,100958.65
2023-12-16T20:01:49.207Z,100962.66
2023-12-16T20:04:16.624Z,100956.71
2023-12-16T20:06:43.499Z,100947.42
2023-12-16T20:09:10.686Z,100942.51
2023-12-16T20:11:37.697Z,100952.97
2023-12-16T20:14:05.253Z,100965.52
2023-12-16T20:16:35.249Z,100963.73
2023-12-16T20:19:02.544Z,100962.98
2023-12-16T20:21:30.051Z,100959.09
2023-12-16T20:23:58.131Z,100957.65
2023-12-16T20:26:24.906Z,100959.90
2023-12-16T20:28:53.327Z,100953.23
2023-12-16T20:31:20.417Z,100947.42
2023-12-16T20:33:47.725Z,100937.59
2023-12-16T20:36:17.690Z,100932.52
2023-12-16T20:39:04.281Z,100928.67
2023-12-16T20:41:32.342Z,100920.95
2023-12-16T20:43:59.192Z,100915.35
2023-12-16T20:46:26.789Z,100909.59
2023-12-16T20:48:55.585Z,100912.05
2023-12-16T20:51:23.491Z,100916.57
2023-12-16T20:53:50.386Z,100923.18
2023-12-16T20:56:17.233Z,100925.92
2023-12-16T20:58:45.030Z,100924.14
2023-12-16T21:01:12.888Z,100930.27
2023-12-16T21:03:39.974Z,100931.62
2023-12-16T21:06:07.281Z,100934.94
2023-12-16T21:08:34.241Z,100937.70
2023-12-16T21:11:01.338Z,100935.23
2023-12-16T21:13:29.311Z,100926.81
2023-12-16T21:15:56.007Z,100922.23
2023-12-16T21:18:23.198Z,100915.38
2023-12-16T21:20:50.391Z,100912.55
2023-12-16T21:23:18.002Z,100913.55
2023-12-16T21:25:45.147Z,100916.33
2023-12-16T21:28:14.156Z,100921.58
2023-12-16T21:30:42.455Z,100926.63
2023-12-16T21:33:10.098Z,100930.48
2023-12-16T21:35:38.181Z,100936.41
2023-12-16T21:38:06.761Z,100933.08
2023-12-16T21:40:33.871Z,100931.13
2023-12-16T21:43:02.731Z,100929.54
2023-12-16T21:45:29.508Z,100921.12
2023-12-16T21:47:56.477Z,100920.77
2023-12-16T21:50:23.312Z,100929.52
2023-12-16T21:52:50.101Z,100927.41
2023-12-16T21:55:16.881Z,100919.88
2023-12-16T21:57:43.627Z,100925.29
2023-12-16T22:00:11.180Z,100928.60
2023-12-16T22:02:39.173Z,100935.95
2023-12-16T22:05:07.448Z,100940.30
2023-12-16T22:07:34.895Z,100932.95
2023-12-16T22:10:02.347Z,100918.58
2023-12-16T22:12:29.093Z,100915.77
2023-12-16T22:14:55.819Z,100918.72
2023-12-16T22:17:22.701Z,100919.21
2023-12-16T22:19:57.128Z,100913.27
2023-12-16T22:22:25.474Z,100905.02
2023-12-16T22:24:52.321Z,100902.57
2023-12-16T22:27:19.221Z,100904.64
2023-12-16T22:29:47.931Z,100912.54
2023-12-16T22:32:14.978Z,100921.63
2023-12-16T22:34:41.726Z,100928.84
2023-12-16T22:37:08.513Z,100929.44
2023-12-16T22:39:35.191Z,100931.73
2023-12-16T22:42:02.572Z,100935.42
2023-12-16T22:44:29.528Z,100935.58
2023-12-16T22:46:56.277Z,100932.23
2023-12-16T22:49:23.278Z,100931.16
2023-12-16T22:51:50.309Z,100933.05
2023-12-16T22:54:17.149Z,100926.90
2023-12-16T22:56:43.892Z,100924.59
2023-12-16T22:59:10.577Z,100924.89
2023-12-16T23:01:37.311Z,100925.39
2023-12-16T23:04:04.215Z,100922.17
2023-12-16T23:06:31.119Z,100921.62
2023-12-16T23:08:57.951Z,100925.63
2023-12-16T23:11:24.716Z,100922.47
2023-12-16T23:13:54.371Z,100921.40
2023-12-16T23:16:21.333Z,100922.81
2023-12-16T23:18:48.220Z,100916.52
2023-12-16T23:21:15.021Z,100916.13
2023-12-16T23:23:42.087Z,100919.45
2023-12-16T23:26:08.862Z,100912.46
2023-12-16T23:28:35.533Z,100900.94
2023-12-16T23:31:08.810Z,100885.73
2023-12-16T23:33:43.045Z,100874.35
2023-12-16T23:36:10.093Z,100872.77
2023-12-16T23:38:36.922Z,100880.79
2023-12-16T23:41:04.076Z,100888.30
2023-12-16T23:43:30.777Z,100886.20
2023-12-16T23:45:57.501Z,100877.61
2023-12-16T23:48:24.636Z,100869.91
2023-12-16T23:50:51.676Z,100864.65
2023-12-16T23:53:18.397Z,100856.43
2023-12-16T23:55:45.175Z,100856.10
2023-12-16T23:58:12.979Z,100855.43
